Time;durP1;ratioP1;P1;durP2;ratioP2;P2;SDS_P1;SDS_P2;PMS_P1;PMS_P2;Temp;Humidity;BMP_temperature;BMP_pressure;BME280_temperature;BME280_humidity;BME280_pressure;Samples;Min_cycle;Max_cycle;Signal;HPM_P1;HPM_P2
2023/06/03 00:00:26;;;;;;;12.38;7.53;;;;;;;;;;5072101;28;20433;-77
2023/06/03 00:02:53;;;;;;;12.00;8.02;;;;;;;;;;5072450;28;20071;-78
2023/06/03 00:05:21;;;;;;;12.10;8.10;;;;;;;;;;5070980;28;20044;-76
2023/06/03 00:07:49;;;;;;;10.63;7.55;;;;;;;;;;5072034;28;20199;-76
2023/06/03 00:10:17;;;;;;;11.23;7.57;;;;;;;;;;5072130;28;20043;-76
2023/06/03 00:12:47;;;;;;;12.48;8.00;;;;;;;;;;5071924;28;20086;-76
2023/06/03 00:15:15;;;;;;;11.30;7.47;;;;;;;;;;5072027;28;20044;-74
2023/06/03 00:17:43;;;;;;;11.68;8.32;;;;;;;;;;5072033;28;20460;-75
2023/06/03 00:20:11;;;;;;;11.98;7.90;;;;;;;;;;5070959;28;20048;-75
2023/06/03 00:22:40;;;;;;;11.77;7.80;;;;;;;;;;5071780;28;20048;-75
2023/06/03 00:25:11;;;;;;;11.02;8.13;;;;;;;;;;5082751;28;20044;-76
2023/06/03 00:27:40;;;;;;;11.18;7.22;;;;;;;;;;5092011;28;20139;-75
2023/06/03 00:30:08;;;;;;;10.73;7.88;;;;;;;;;;5090667;28;20428;-75
2023/06/03 00:32:35;;;;;;;10.85;8.30;;;;;;;;;;5090840;28;20089;-75
2023/06/03 00:35:03;;;;;;;11.73;7.80;;;;;;;;;;5093395;28;20485;-75
2023/06/03 00:37:33;;;;;;;13.07;8.05;;;;;;;;;;5094460;28;20044;-75
2023/06/03 00:40:00;;;;;;;13.77;8.75;;;;;;;;;;5094170;28;20062;-75
2023/06/03 00:42:28;;;;;;;12.98;8.82;;;;;;;;;;5095620;28;20059;-75
2023/06/03 00:44:56;;;;;;;13.68;8.90;;;;;;;;;;5094174;28;20134;-75
2023/06/03 00:47:26;;;;;;;9.98;8.20;;;;;;;;;;5095548;28;20040;-74
2023/06/03 00:49:53;;;;;;;12.13;8.55;;;;;;;;;;5094000;28;20083;-74
2023/06/03 00:52:22;;;;;;;13.82;9.13;;;;;;;;;;5095258;28;20436;-74
2023/06/03 00:54:51;;;;;;;11.90;9.10;;;;;;;;;;5094260;28;20044;-74
2023/06/03 00:57:20;;;;;;;11.25;8.82;;;;;;;;;;5093915;28;20139;-74
2023/06/03 00:59:47;;;;;;;11.15;9.05;;;;;;;;;;5093992;28;20441;-73
2023/06/03 01:02:15;;;;;;;11.52;9.80;;;;;;;;;;5093900;28;20143;-74
2023/06/03 01:04:45;;;;;;;12.13;9.98;;;;;;;;;;5093865;28;20047;-74
2023/06/03 01:07:16;;;;;;;13.27;9.38;;;;;;;;;;5095089;28;20046;-74
2023/06/03 01:09:51;;;;;;;18.73;9.63;;;;;;;;;;5095087;28;20044;-74
2023/06/03 01:12:39;;;;;;;14.27;9.43;;;;;;;;;;5095019;28;20064;-74
2023/06/03 01:15:25;;;;;;;13.88;9.52;;;;;;;;;;5094841;28;20434;-74
2023/06/03 01:17:57;;;;;;;13.13;9.82;;;;;;;;;;5093704;28;20127;-73
2023/06/03 01:20:28;;;;;;;16.42;9.80;;;;;;;;;;5093472;28;20040;-74
2023/06/03 01:23:12;;;;;;;16.67;10.13;;;;;;;;;;5094748;28;20040;-74
2023/06/03 01:25:41;;;;;;;15.30;10.68;;;;;;;;;;5093360;28;20051;-74
2023/06/03 01:28:09;;;;;;;17.77;11.23;;;;;;;;;;5094814;28;20486;-75
2023/06/03 01:30:37;;;;;;;13.90;10.98;;;;;;;;;;5093413;28;20177;-75
2023/06/03 01:33:05;;;;;;;13.48;11.40;;;;;;;;;;5093224;28;20051;-75
2023/06/03 01:35:33;;;;;;;17.95;11.60;;;;;;;;;;5093781;28;20040;-74
2023/06/03 01:38:00;;;;;;;14.27;11.23;;;;;;;;;;5093260;28;20517;-74
2023/06/03 01:40:28;;;;;;;15.82;11.10;;;;;;;;;;5093257;28;20055;-74
2023/06/03 01:42:56;;;;;;;14.23;11.85;;;;;;;;;;5093136;28;20044;-74
2023/06/03 01:45:24;;;;;;;17.67;11.63;;;;;;;;;;5092852;28;20553;-74
2023/06/03 01:47:51;;;;;;;21.00;11.63;;;;;;;;;;5093153;28;20453;-75
2023/06/03 01:50:22;;;;;;;14.35;11.05;;;;;;;;;;5093122;28;20048;-74
2023/06/03 01:52:50;;;;;;;16.23;10.88;;;;;;;;;;5092916;28;20452;-74
2023/06/03 01:55:18;;;;;;;20.77;11.60;;;;;;;;;;5092940;28;20040;-74
2023/06/03 01:57:49;;;;;;;19.58;11.95;;;;;;;;;;5092859;28;20512;-74
2023/06/03 02:00:17;;;;;;;18.27;12.10;;;;;;;;;;5092924;28;20044;-74
2023/06/03 02:02:47;;;;;;;16.23;12.10;;;;;;;;;;5092687;28;20511;-74
2023/06/03 02:05:15;;;;;;;18.25;12.48;;;;;;;;;;5092675;28;20072;-74
2023/06/03 02:07:43;;;;;;;14.23;11.68;;;;;;;;;;5092907;28;20060;-74
2023/06/03 02:10:10;;;;;;;18.42;12.00;;;;;;;;;;5092614;28;20042;-74
2023/06/03 02:12:38;;;;;;;17.48;13.05;;;;;;;;;;5092754;28;20176;-74
2023/06/03 02:15:16;;;;;;;15.60;11.43;;;;;;;;;;5077391;28;20036;-74
2023/06/03 02:17:43;;;;;;;17.73;11.65;;;;;;;;;;5092541;28;20055;-74
2023/06/03 02:20:11;;;;;;;14.88;11.80;;;;;;;;;;5093540;28;20111;-74
2023/06/03 02:22:39;;;;;;;18.85;12.35;;;;;;;;;;5092196;28;20418;-73
2023/06/03 02:25:08;;;;;;;20.02;12.32;;;;;;;;;;5092400;28;20047;-74
2023/06/03 02:27:36;;;;;;;17.73;12.00;;;;;;;;;;5092340;28;20040;-74
2023/06/03 02:30:04;;;;;;;21.38;12.05;;;;;;;;;;5093636;28;20109;-74
2023/06/03 02:32:32;;;;;;;17.50;11.70;;;;;;;;;;5091891;28;20048;-74
2023/06/03 02:35:00;;;;;;;16.02;11.80;;;;;;;;;;5092082;28;20497;-74
2023/06/03 02:37:27;;;;;;;16.98;11.75;;;;;;;;;;5092064;28;20448;-74
2023/06/03 02:39:55;;;;;;;12.57;11.07;;;;;;;;;;5092342;28;20078;-74
2023/06/03 02:42:23;;;;;;;18.60;11.38;;;;;;;;;;5091913;28;20502;-74
2023/06/03 02:44:51;;;;;;;15.88;11.88;;;;;;;;;;5093301;28;20432;-74
2023/06/03 02:47:18;;;;;;;15.40;11.40;;;;;;;;;;5092067;28;20044;-72
2023/06/03 02:49:46;;;;;;;17.92;11.88;;;;;;;;;;5091759;28;20043;-72
2023/06/03 02:52:13;;;;;;;16.63;11.00;;;;;;;;;;5092992;28;20040;-73
2023/06/03 02:54:41;;;;;;;14.93;10.57;;;;;;;;;;5091830;28;20486;-72
2023/06/03 02:57:08;;;;;;;13.55;10.40;;;;;;;;;;5092604;28;20047;-73
2023/06/03 02:59:36;;;;;;;15.98;10.57;;;;;;;;;;5091694;28;20044;-73
2023/06/03 03:02:03;;;;;;;15.27;10.80;;;;;;;;;;5091613;28;20409;-73
2023/06/03 03:04:33;;;;;;;16.10;10.00;;;;;;;;;;5091714;28;20168;-72
2023/06/03 03:07:01;;;;;;;15.65;10.88;;;;;;;;;;5091767;28;20028;-73
2023/06/03 03:09:29;;;;;;;14.55;9.98;;;;;;;;;;5092939;28;20038;-72
2023/06/03 03:11:57;;;;;;;15.95;9.80;;;;;;;;;;5091568;28;20501;-73
2023/06/03 03:14:25;;;;;;;14.65;10.27;;;;;;;;;;5092826;28;20456;-74
2023/06/03 03:16:53;;;;;;;14.23;10.20;;;;;;;;;;5091552;28;20040;-73
2023/06/03 03:19:21;;;;;;;15.23;10.48;;;;;;;;;;5091382;28;20082;-74
2023/06/03 03:21:49;;;;;;;17.83;10.68;;;;;;;;;;5091653;28;20040;-73
2023/06/03 03:24:24;;;;;;;16.92;10.40;;;;;;;;;;5091511;28;20044;-74
2023/06/03 03:26:53;;;;;;;15.52;10.07;;;;;;;;;;5091426;28;20059;-73
2023/06/03 03:29:24;;;;;;;14.75;9.57;;;;;;;;;;5091814;28;20072;-73
2023/06/03 03:31:59;;;;;;;14.25;10.20;;;;;;;;;;5091279;28;20436;-74
2023/06/03 03:34:30;;;;;;;16.30;9.85;;;;;;;;;;5091279;28;20040;-74
2023/06/03 03:36:59;;;;;;;16.33;9.70;;;;;;;;;;5091299;28;20037;-73
2023/06/03 03:39:26;;;;;;;15.93;9.93;;;;;;;;;;5091351;28;20143;-74
2023/06/03 03:41:54;;;;;;;14.45;9.45;;;;;;;;;;5091295;28;20105;-74
2023/06/03 03:44:23;;;;;;;14.45;9.68;;;;;;;;;;5091061;28;20055;-74
2023/06/03 03:47:03;;;;;;;15.95;9.57;;;;;;;;;;5091104;28;20040;-73
2023/06/03 03:49:35;;;;;;;20.35;11.05;;;;;;;;;;5091377;28;20097;-74
2023/06/03 03:52:08;;;;;;;16.42;9.98;;;;;;;;;;5075292;28;20684;-74
2023/06/03 03:54:41;;;;;;;14.65;10.38;;;;;;;;;;5091189;28;20097;-74
2023/06/03 03:57:13;;;;;;;18.70;10.15;;;;;;;;;;5091136;28;20048;-74
2023/06/03 03:59:47;;;;;;;14.95;9.90;;;;;;;;;;5091344;28;20048;-73
2023/06/03 04:02:16;;;;;;;17.85;10.45;;;;;;;;;;5091035;28;20528;-74
2023/06/03 04:04:44;;;;;;;15.00;10.57;;;;;;;;;;5090862;28;20048;-73
2023/06/03 04:07:17;;;;;;;15.95;10.43;;;;;;;;;;5091100;28;20140;-74
2023/06/03 04:09:45;;;;;;;12.80;9.77;;;;;;;;;;5076975;28;20052;-72
2023/06/03 04:12:18;;;;;;;13.13;10.10;;;;;;;;;;5095080;28;20040;-70
2023/06/03 04:14:49;;;;;;;13.82;9.98;;;;;;;;;;5078141;28;20044;-72
2023/06/03 04:17:21;;;;;;;16.63;9.80;;;;;;;;;;5096149;28;20127;-72
2023/06/03 04:19:49;;;;;;;18.65;10.13;;;;;;;;;;5094871;28;20109;-72
2023/06/03 04:22:23;;;;;;;16.73;10.18;;;;;;;;;;5094596;28;20036;-72
2023/06/03 04:24:55;;;;;;;16.20;10.35;;;;;;;;;;5094679;28;20139;-72
2023/06/03 04:27:24;;;;;;;14.80;9.95;;;;;;;;;;5094665;28;20087;-71
2023/06/03 04:29:51;;;;;;;16.42;10.60;;;;;;;;;;5092117;28;20032;-70
2023/06/03 04:32:20;;;;;;;23.60;13.20;;;;;;;;;;5076901;28;20502;-71
2023/06/03 04:34:52;;;;;;;21.08;11.02;;;;;;;;;;5108237;28;20044;-71
2023/06/03 04:37:21;;;;;;;19.02;11.85;;;;;;;;;;5074312;28;20060;-73
2023/06/03 04:39:51;;;;;;;15.23;10.25;;;;;;;;;;5105139;28;20068;-72
2023/06/03 04:42:19;;;;;;;14.25;10.57;;;;;;;;;;5074530;28;20044;-71
2023/06/03 04:44:50;;;;;;;17.92;10.75;;;;;;;;;;5074094;28;20040;-71
2023/06/03 04:47:19;;;;;;;17.98;10.55;;;;;;;;;;5073866;28;20045;-72
2023/06/03 04:49:51;;;;;;;17.65;11.23;;;;;;;;;;5073684;28;20044;-71
2023/06/03 04:52:18;;;;;;;16.20;10.35;;;;;;;;;;5074117;28;20052;-72
2023/06/03 04:54:51;;;;;;;16.42;10.35;;;;;;;;;;5073848;28;20040;-71
2023/06/03 04:57:22;;;;;;;17.10;10.27;;;;;;;;;;5073871;28;20052;-72
2023/06/03 04:59:49;;;;;;;17.00;10.48;;;;;;;;;;5073838;28;20048;-72
2023/06/03 05:02:20;;;;;;;14.65;10.50;;;;;;;;;;5073585;28;20394;-73
2023/06/03 05:04:49;;;;;;;16.63;10.85;;;;;;;;;;5073615;28;20143;-72
2023/06/03 05:07:18;;;;;;;11.95;9.60;;;;;;;;;;5073668;28;20040;-72
2023/06/03 05:09:46;;;;;;;14.88;10.05;;;;;;;;;;5073894;28;20471;-73
2023/06/03 05:12:13;;;;;;;13.70;9.70;;;;;;;;;;5073542;28;20094;-71
2023/06/03 05:14:42;;;;;;;11.82;9.30;;;;;;;;;;5073411;28;20055;-71
2023/06/03 05:17:10;;;;;;;13.35;9.25;;;;;;;;;;5073522;28;20063;-72
2023/06/03 05:19:38;;;;;;;15.98;10.25;;;;;;;;;;5072822;28;20380;-76
2023/06/03 05:22:05;;;;;;;19.38;12.95;;;;;;;;;;5073416;28;20406;-67
2023/06/03 05:24:35;;;;;;;15.98;10.63;;;;;;;;;;5073212;28;20450;-66
2023/06/03 05:27:03;;;;;;;15.75;9.85;;;;;;;;;;5073121;28;20040;-72
2023/06/03 05:29:32;;;;;;;15.82;10.10;;;;;;;;;;5073267;28;20095;-72
2023/06/03 05:31:59;;;;;;;19.17;10.38;;;;;;;;;;5073184;28;20094;-74
2023/06/03 05:34:28;;;;;;;16.35;10.02;;;;;;;;;;5073213;28;20050;-74
2023/06/03 05:36:56;;;;;;;15.80;9.50;;;;;;;;;;5073191;28;20098;-75
2023/06/03 05:39:23;;;;;;;11.98;9.20;;;;;;;;;;5074212;28;20608;-75
2023/06/03 05:41:51;;;;;;;14.10;9.48;;;;;;;;;;5106611;28;20524;-73
2023/06/03 05:44:18;;;;;;;15.18;9.25;;;;;;;;;;5074011;28;20055;-68
2023/06/03 05:46:46;;;;;;;15.65;8.95;;;;;;;;;;5072815;28;20502;-65
2023/06/03 05:49:14;;;;;;;15.40;9.25;;;;;;;;;;5074093;28;20048;-73
2023/06/03 05:51:42;;;;;;;11.88;8.70;;;;;;;;;;5082968;28;20036;-73
2023/06/03 05:54:10;;;;;;;13.10;8.77;;;;;;;;;;5104613;28;20451;-73
2023/06/03 05:56:37;;;;;;;13.50;8.95;;;;;;;;;;5080658;28;20040;-73
2023/06/03 05:59:06;;;;;;;9.55;7.68;;;;;;;;;;5074270;28;20043;-72
2023/06/03 06:01:38;;;;;;;11.75;7.40;;;;;;;;;;5075786;28;20069;-71
2023/06/03 06:04:08;;;;;;;8.45;6.85;;;;;;;;;;5075964;28;20048;-72
2023/06/03 06:06:36;;;;;;;9.35;6.50;;;;;;;;;;5088726;28;20036;-71
2023/06/03 06:09:04;;;;;;;9.65;5.93;;;;;;;;;;5092488;28;20111;-72
2023/06/03 06:11:32;;;;;;;7.88;5.47;;;;;;;;;;5091518;28;20044;-72
2023/06/03 06:14:00;;;;;;;12.68;5.30;;;;;;;;;;5080818;28;20079;-73
2023/06/03 06:16:28;;;;;;;11.93;5.40;;;;;;;;;;5092262;28;20432;-72
2023/06/03 06:18:58;;;;;;;8.80;5.25;;;;;;;;;;5092387;28;20039;-73
2023/06/03 06:21:28;;;;;;;8.75;5.22;;;;;;;;;;5092300;28;20040;-72
2023/06/03 06:23:56;;;;;;;9.85;5.93;;;;;;;;;;5091964;28;20071;-70
2023/06/03 06:26:24;;;;;;;23.17;7.45;;;;;;;;;;5093471;28;20044;-72
2023/06/03 06:28:54;;;;;;;8.02;5.13;;;;;;;;;;5088646;28;20376;-73
2023/06/03 06:31:23;;;;;;;10.38;5.55;;;;;;;;;;5080255;28;20490;-74
2023/06/03 06:33:53;;;;;;;10.18;5.10;;;;;;;;;;5091959;28;20036;-72
2023/06/03 06:36:26;;;;;;;8.77;5.65;;;;;;;;;;5091740;28;20047;-72
2023/06/03 06:38:54;;;;;;;11.15;5.53;;;;;;;;;;5091826;28;20044;-72
2023/06/03 06:41:21;;;;;;;11.05;5.85;;;;;;;;;;5091740;28;20124;-72
2023/06/03 06:43:49;;;;;;;11.18;5.32;;;;;;;;;;5091771;28;20375;-73
2023/06/03 06:46:17;;;;;;;12.38;5.07;;;;;;;;;;5073782;28;20089;-74
2023/06/03 06:48:45;;;;;;;10.25;4.90;;;;;;;;;;5080639;28;20040;-73
2023/06/03 06:51:19;;;;;;;9.20;5.22;;;;;;;;;;5087392;28;20094;-74
2023/06/03 06:53:48;;;;;;;10.80;5.43;;;;;;;;;;5071483;28;20032;-76
2023/06/03 06:56:18;;;;;;;9.77;5.90;;;;;;;;;;5071651;28;20083;-75
2023/06/03 06:58:58;;;;;;;16.25;5.50;;;;;;;;;;5072937;28;20033;-75
2023/06/03 07:01:26;;;;;;;10.38;6.10;;;;;;;;;;5071247;28;20098;-75
2023/06/03 07:03:55;;;;;;;14.43;6.20;;;;;;;;;;5071004;28;20044;-76
2023/06/03 07:06:23;;;;;;;12.32;5.72;;;;;;;;;;5086571;28;20052;-75
2023/06/03 07:08:59;;;;;;;9.80;5.65;;;;;;;;;;5090863;28;20109;-77
2023/06/03 07:11:27;;;;;;;14.73;5.88;;;;;;;;;;5074382;28;20048;-75
2023/06/03 07:13:58;;;;;;;9.18;5.22;;;;;;;;;;5084014;28;20044;-76
2023/06/03 07:16:26;;;;;;;22.30;5.60;;;;;;;;;;5091288;28;20130;-75
2023/06/03 07:18:54;;;;;;;7.93;5.40;;;;;;;;;;5074946;28;20552;-75
2023/06/03 07:21:34;;;;;;;9.27;5.03;;;;;;;;;;5081569;28;20120;-83
2023/06/03 07:24:07;;;;;;;8.43;5.88;;;;;;;;;;5075181;28;20052;-82
2023/06/03 07:26:35;;;;;;;10.07;5.22;;;;;;;;;;5071939;28;20079;-83
2023/06/03 07:29:04;;;;;;;9.18;5.20;;;;;;;;;;5072744;28;20049;-81
2023/06/03 07:31:39;;;;;;;10.27;5.97;;;;;;;;;;5073063;28;20057;-86
2023/06/03 07:34:08;;;;;;;14.32;7.38;;;;;;;;;;5073110;28;20075;-88
2023/06/03 07:36:41;;;;;;;9.52;5.75;;;;;;;;;;5073365;28;20040;-85
2023/06/03 07:39:15;;;;;;;8.98;6.03;;;;;;;;;;5073639;28;20052;-88
2023/06/03 07:41:51;;;;;;;28.88;18.13;;;;;;;;;;5085797;28;20529;-85
2023/06/03 07:44:44;;;;;;;9.07;5.93;;;;;;;;;;5077206;28;20410;-85
2023/06/03 07:47:13;;;;;;;17.85;11.43;;;;;;;;;;5078087;28;20047;-85
2023/06/03 07:49:43;;;;;;;14.70;7.18;;;;;;;;;;5093227;28;20453;-84
2023/06/03 07:52:15;;;;;;;10.27;5.35;;;;;;;;;;5085715;28;20379;-88
2023/06/03 07:54:42;;;;;;;9.02;5.32;;;;;;;;;;5079362;28;20055;-83
2023/06/03 07:57:11;;;;;;;8.57;4.90;;;;;;;;;;5099339;28;20046;-83
2023/06/03 07:59:39;;;;;;;8.52;5.18;;;;;;;;;;5097860;28;20044;-82
2023/06/03 08:02:08;;;;;;;12.07;7.45;;;;;;;;;;5091922;28;20024;-81
2023/06/03 08:04:37;;;;;;;11.63;5.90;;;;;;;;;;5081145;28;20049;-87
2023/06/03 08:07:07;;;;;;;8.77;5.40;;;;;;;;;;5079614;28;20048;-83
2023/06/03 08:09:36;;;;;;;15.85;10.80;;;;;;;;;;5085115;28;20040;-87
2023/06/03 08:12:04;;;;;;;18.80;12.80;;;;;;;;;;5091192;28;20043;-88
2023/06/03 08:14:33;;;;;;;12.35;6.75;;;;;;;;;;5081733;28;20040;-87
2023/06/03 08:17:24;;;;;;;11.55;5.88;;;;;;;;;;5081620;28;20111;-84
2023/06/03 08:19:52;;;;;;;15.45;10.80;;;;;;;;;;5077831;28;20071;-85
2023/06/03 08:22:34;;;;;;;9.25;5.90;;;;;;;;;;5089784;28;20036;-86
2023/06/03 08:25:02;;;;;;;11.52;6.82;;;;;;;;;;5082301;28;20047;-87
2023/06/03 08:27:31;;;;;;;15.70;12.18;;;;;;;;;;5078934;28;20486;-87
2023/06/03 08:29:59;;;;;;;13.20;7.13;;;;;;;;;;5086577;28;20479;-83
2023/06/03 08:32:26;;;;;;;9.45;4.60;;;;;;;;;;5091544;28;20037;-84
2023/06/03 08:34:54;;;;;;;7.07;4.53;;;;;;;;;;5084828;28;20115;-89
2023/06/03 08:37:21;;;;;;;15.73;5.60;;;;;;;;;;5083860;28;20128;-86
2023/06/03 08:39:49;;;;;;;15.40;5.88;;;;;;;;;;5089467;28;20040;-90
2023/06/03 08:42:22;;;;;;;13.80;6.30;;;;;;;;;;5083888;28;20051;-88
2023/06/03 08:45:06;;;;;;;11.18;5.10;;;;;;;;;;5093724;28;20131;-84
2023/06/03 08:48:00;;;;;;;8.07;4.57;;;;;;;;;;5092297;28;20059;-86
2023/06/03 08:50:28;;;;;;;9.48;5.20;;;;;;;;;;5087632;28;20056;-85
2023/06/03 08:52:57;;;;;;;12.70;6.03;;;;;;;;;;5086122;28;20111;-89
2023/06/03 08:55:25;;;;;;;9.75;4.57;;;;;;;;;;5098273;28;20432;-89
2023/06/03 08:57:55;;;;;;;13.25;5.40;;;;;;;;;;5090385;28;20044;-87
2023/06/03 09:00:24;;;;;;;9.02;4.70;;;;;;;;;;5091448;28;20044;-85
2023/06/03 09:02:51;;;;;;;16.30;4.70;;;;;;;;;;5087925;28;20035;-87
2023/06/03 09:05:22;;;;;;;9.30;4.80;;;;;;;;;;5083239;28;20045;-81
2023/06/03 09:07:53;;;;;;;8.70;4.43;;;;;;;;;;5075132;28;20087;-72
2023/06/03 09:10:21;;;;;;;9.30;4.97;;;;;;;;;;5073417;28;20410;-79
2023/06/03 09:12:50;;;;;;;11.00;5.10;;;;;;;;;;5083574;28;20040;-74
2023/06/03 09:15:18;;;;;;;7.38;5.10;;;;;;;;;;5074508;28;20038;-76
2023/06/03 09:17:45;;;;;;;11.43;4.95;;;;;;;;;;5074483;28;20033;-78
2023/06/03 09:20:13;;;;;;;9.23;4.88;;;;;;;;;;5075724;28;20433;-79
2023/06/03 09:22:48;;;;;;;8.02;4.63;;;;;;;;;;5083247;28;20047;-77
2023/06/03 09:25:16;;;;;;;8.25;4.90;;;;;;;;;;5086840;28;20529;-78
2023/06/03 09:27:43;;;;;;;8.68;5.22;;;;;;;;;;5094889;28;20105;-78
2023/06/03 09:30:11;;;;;;;8.57;4.32;;;;;;;;;;5093832;28;20056;-79
2023/06/03 09:32:38;;;;;;;8.25;5.00;;;;;;;;;;5087117;28;20094;-78
2023/06/03 09:35:06;;;;;;;11.40;5.10;;;;;;;;;;5087877;28;20048;-78
2023/06/03 09:37:34;;;;;;;9.20;4.97;;;;;;;;;;5083996;28;20435;-76
2023/06/03 09:40:09;;;;;;;12.98;4.70;;;;;;;;;;5090265;28;20044;-77
2023/06/03 09:42:43;;;;;;;10.95;5.47;;;;;;;;;;5085352;28;20040;-76
2023/06/03 09:45:28;;;;;;;10.15;6.43;;;;;;;;;;5068476;28;20115;-77
2023/06/03 09:47:56;;;;;;;;;;;;;;;;;;5079507;28;20044;-77
2023/06/03 09:50:24;;;;;;;9.23;5.05;;;;;;;;;;5080112;28;19920;-78
2023/06/03 09:52:51;;;;;;;10.32;5.68;;;;;;;;;;5075669;28;20071;-76
2023/06/03 09:55:19;;;;;;;9.90;6.85;;;;;;;;;;5080297;28;20516;-78
2023/06/03 09:58:03;;;;;;;10.30;5.28;;;;;;;;;;5076997;28;20102;-76
2023/06/03 10:00:47;;;;;;;17.33;8.32;;;;;;;;;;5073136;28;20090;-76
2023/06/03 10:03:14;;;;;;;15.95;7.57;;;;;;;;;;5076429;28;20063;-81
2023/06/03 10:05:42;;;;;;;15.35;7.40;;;;;;;;;;5092996;28;20044;-76
2023/06/03 10:08:10;;;;;;;10.82;6.03;;;;;;;;;;5093634;28;20032;-75
2023/06/03 10:10:54;;;;;;;16.77;6.22;;;;;;;;;;5082571;28;20090;-72
2023/06/03 10:13:23;;;;;;;;;;;;;;;;;;5093436;28;20032;-78
2023/06/03 10:15:52;;;;;;;9.82;5.38;;;;;;;;;;5093329;28;19924;-67
2023/06/03 10:18:36;;;;;;;11.45;5.97;;;;;;;;;;5090561;28;20040;-73
2023/06/03 10:21:05;;;;;;;10.45;5.72;;;;;;;;;;5092787;28;20494;-70
2023/06/03 10:23:35;;;;;;;10.95;5.72;;;;;;;;;;5081094;28;20570;-72
2023/06/03 10:26:03;;;;;;;12.60;5.68;;;;;;;;;;5087600;28;20043;-72
2023/06/03 10:28:31;;;;;;;9.23;4.50;;;;;;;;;;5107432;28;20046;-73
2023/06/03 10:31:00;;;;;;;13.68;5.57;;;;;;;;;;5083453;28;20058;-71
2023/06/03 10:33:28;;;;;;;10.38;5.03;;;;;;;;;;5078503;28;20037;-72
2023/06/03 10:35:57;;;;;;;9.48;5.00;;;;;;;;;;5071910;28;20037;-72
2023/06/03 10:38:25;;;;;;;8.63;5.18;;;;;;;;;;5072920;28;20044;-73
2023/06/03 10:40:54;;;;;;;6.68;5.60;;;;;;;;;;5073037;28;20036;-73
2023/06/03 10:43:23;;;;;;;9.93;4.70;;;;;;;;;;5072934;28;20524;-72
2023/06/03 10:45:51;;;;;;;14.00;6.32;;;;;;;;;;5073226;28;20044;-72
2023/06/03 10:48:22;;;;;;;35.13;10.25;;;;;;;;;;5072988;28;20044;-69
2023/06/03 10:51:20;;;;;;;9.25;4.68;;;;;;;;;;5080566;28;20093;-73
2023/06/03 10:53:51;;;;;;;17.83;6.93;;;;;;;;;;5072137;28;20561;-72
2023/06/03 10:56:33;;;;;;;11.55;5.63;;;;;;;;;;5091657;28;20589;-72
2023/06/03 10:59:02;;;;;;;9.18;5.15;;;;;;;;;;5111924;28;20592;-72
2023/06/03 11:01:49;;;;;;;11.95;6.00;;;;;;;;;;5113302;28;20052;-71
2023/06/03 11:04:17;;;;;;;12.48;4.82;;;;;;;;;;5113206;28;20088;-72
2023/06/03 11:06:45;;;;;;;10.35;5.10;;;;;;;;;;5111402;28;20126;-70
2023/06/03 11:09:18;;;;;;;10.70;4.70;;;;;;;;;;5112504;28;20448;-71
2023/06/03 11:11:55;;;;;;;15.93;4.93;;;;;;;;;;5113297;28;20046;-71
2023/06/03 11:14:27;;;;;;;18.85;7.60;;;;;;;;;;5112889;28;20039;-71
2023/06/03 11:16:57;;;;;;;13.25;6.35;;;;;;;;;;5113153;28;20088;-72
2023/06/03 11:19:31;;;;;;;13.35;6.20;;;;;;;;;;5111804;28;20084;-72
2023/06/03 11:21:59;;;;;;;12.77;5.53;;;;;;;;;;5112972;28;20077;-72
2023/06/03 11:24:39;;;;;;;12.07;6.70;;;;;;;;;;5113201;28;20082;-72
2023/06/03 11:27:15;;;;;;;8.43;4.60;;;;;;;;;;5113132;28;20036;-72
2023/06/03 11:29:49;;;;;;;12.48;5.10;;;;;;;;;;5112973;28;20108;-73
2023/06/03 11:32:25;;;;;;;9.68;4.78;;;;;;;;;;5112911;28;20043;-75
2023/06/03 11:34:59;;;;;;;17.75;7.43;;;;;;;;;;5113062;28;20508;-71
2023/06/03 11:37:43;;;;;;;33.93;19.60;;;;;;;;;;5113055;28;20035;-72
2023/06/03 11:40:16;;;;;;;23.25;10.05;;;;;;;;;;5112906;28;20043;-72
2023/06/03 11:42:47;;;;;;;12.00;5.30;;;;;;;;;;5111774;28;20476;-73
2023/06/03 11:45:18;;;;;;;13.68;6.28;;;;;;;;;;5112887;28;20769;-71
2023/06/03 11:47:55;;;;;;;8.80;4.72;;;;;;;;;;5111634;28;20048;-73
2023/06/03 11:50:31;;;;;;;12.65;6.22;;;;;;;;;;5111607;28;20100;-73
2023/06/03 11:52:59;;;;;;;19.67;5.60;;;;;;;;;;5112821;28;20665;-73
2023/06/03 11:55:29;;;;;;;10.15;4.85;;;;;;;;;;5112672;28;20119;-73
2023/06/03 11:58:10;;;;;;;10.43;4.82;;;;;;;;;;5111409;28;20040;-72
2023/06/03 12:00:38;;;;;;;14.07;6.93;;;;;;;;;;5112662;28;20449;-72
2023/06/03 12:03:10;;;;;;;11.23;5.20;;;;;;;;;;5111621;28;20093;-72
2023/06/03 12:05:52;;;;;;;18.25;9.88;;;;;;;;;;5112626;28;20094;-72
2023/06/03 12:08:19;;;;;;;19.15;11.98;;;;;;;;;;5112832;28;20079;-73
2023/06/03 12:10:47;;;;;;;7.82;5.25;;;;;;;;;;5112420;28;20096;-72
2023/06/03 12:13:14;;;;;;;12.73;6.10;;;;;;;;;;5112687;28;20431;-73
2023/06/03 12:15:48;;;;;;;8.02;4.95;;;;;;;;;;5112686;28;20047;-72
2023/06/03 12:18:16;;;;;;;14.73;6.57;;;;;;;;;;5112710;28;20389;-73
2023/06/03 12:20:44;;;;;;;13.73;5.35;;;;;;;;;;5112929;28;20043;-73
2023/06/03 12:23:20;;;;;;;10.85;7.07;;;;;;;;;;5112523;28;20040;-73
2023/06/03 12:25:55;;;;;;;12.43;6.50;;;;;;;;;;5112441;28;20048;-73
2023/06/03 12:28:23;;;;;;;10.05;5.40;;;;;;;;;;5112441;28;20043;-76
2023/06/03 12:30:51;;;;;;;11.15;5.53;;;;;;;;;;5115155;28;20131;-74
2023/06/03 12:33:22;;;;;;;10.88;6.30;;;;;;;;;;5116266;28;20485;-74
2023/06/03 12:36:02;;;;;;;20.60;7.18;;;;;;;;;;5116108;28;20044;-74
2023/06/03 12:38:29;;;;;;;12.70;5.32;;;;;;;;;;5116001;28;20401;-74
2023/06/03 12:41:08;;;;;;;9.43;5.30;;;;;;;;;;5116163;28;20049;-74
2023/06/03 12:43:36;;;;;;;11.38;5.18;;;;;;;;;;5116014;28;20036;-73
2023/06/03 12:46:16;;;;;;;16.17;5.13;;;;;;;;;;5115904;28;20050;-73
2023/06/03 12:48:47;;;;;;;9.88;5.15;;;;;;;;;;5116049;28;20066;-73
2023/06/03 12:51:23;;;;;;;15.02;5.30;;;;;;;;;;5115998;28;20047;-74
2023/06/03 12:54:01;;;;;;;16.10;8.45;;;;;;;;;;5115846;28;20402;-75
2023/06/03 12:56:28;;;;;;;26.30;14.57;;;;;;;;;;5115924;28;20054;-74
2023/06/03 12:58:56;;;;;;;31.85;11.00;;;;;;;;;;5115747;28;20047;-74
2023/06/03 13:01:24;;;;;;;18.55;7.10;;;;;;;;;;5114516;28;20051;-74
2023/06/03 13:03:54;;;;;;;14.55;5.25;;;;;;;;;;5114353;28;20493;-76
2023/06/03 13:06:25;;;;;;;11.57;5.20;;;;;;;;;;5096252;28;20078;-69
2023/06/03 13:08:53;;;;;;;10.75;5.53;;;;;;;;;;5094640;28;20040;-73
2023/06/03 13:11:25;;;;;;;9.38;5.40;;;;;;;;;;5080459;28;20097;-76
2023/06/03 13:13:53;;;;;;;10.00;4.90;;;;;;;;;;5088821;28;20052;-75
2023/06/03 13:16:20;;;;;;;16.10;6.07;;;;;;;;;;5084340;28;20059;-76
2023/06/03 13:18:47;;;;;;;23.95;7.85;;;;;;;;;;5074414;28;20098;-77
2023/06/03 13:21:15;;;;;;;17.90;6.22;;;;;;;;;;5078568;28;20040;-75
2023/06/03 13:23:46;;;;;;;16.50;5.80;;;;;;;;;;5076626;28;20037;-75
2023/06/03 13:26:13;;;;;;;9.27;4.72;;;;;;;;;;5094649;28;20044;-78
2023/06/03 13:28:41;;;;;;;13.55;5.60;;;;;;;;;;5085107;28;20040;-77
2023/06/03 13:31:11;;;;;;;13.52;5.93;;;;;;;;;;5081497;28;20132;-80
2023/06/03 13:33:39;;;;;;;10.10;4.95;;;;;;;;;;5092465;28;20394;-77
2023/06/03 13:36:06;;;;;;;10.63;5.00;;;;;;;;;;5094447;28;20497;-75
2023/06/03 13:38:34;;;;;;;14.75;5.93;;;;;;;;;;5089781;28;20067;-80
2023/06/03 13:41:01;;;;;;;11.60;4.60;;;;;;;;;;5079750;28;20042;-83
2023/06/03 13:43:29;;;;;;;12.27;5.05;;;;;;;;;;5094361;28;20065;-80
2023/06/03 13:45:59;;;;;;;12.98;6.25;;;;;;;;;;5093883;28;20047;-77
2023/06/03 13:48:29;;;;;;;14.32;5.60;;;;;;;;;;5094011;28;20047;-82
2023/06/03 13:50:59;;;;;;;10.93;5.13;;;;;;;;;;5093269;28;20040;-79
2023/06/03 13:53:27;;;;;;;10.40;5.32;;;;;;;;;;5093685;28;20040;-78
2023/06/03 13:55:55;;;;;;;10.48;3.85;;;;;;;;;;5094197;28;20047;-80
2023/06/03 13:58:23;;;;;;;9.68;4.03;;;;;;;;;;5094604;28;20446;-82
2023/06/03 14:00:51;;;;;;;9.60;4.30;;;;;;;;;;5092940;28;20040;-78
2023/06/03 14:03:18;;;;;;;10.00;4.22;;;;;;;;;;5093892;28;20078;-67
2023/06/03 14:05:48;;;;;;;8.43;3.75;;;;;;;;;;5093602;28;20497;-77
2023/06/03 14:08:15;;;;;;;10.82;4.25;;;;;;;;;;5093952;28;20036;-75
2023/06/03 14:10:43;;;;;;;10.48;4.35;;;;;;;;;;5093609;28;20497;-75
2023/06/03 14:13:11;;;;;;;10.65;4.25;;;;;;;;;;5091639;28;20062;-77
2023/06/03 14:15:39;;;;;;;9.65;4.20;;;;;;;;;;5082371;28;20048;-76
2023/06/03 14:18:06;;;;;;;24.23;4.60;;;;;;;;;;5079199;28;20036;-74
2023/06/03 14:20:34;;;;;;;15.60;5.03;;;;;;;;;;5086324;28;20044;-75
2023/06/03 14:23:04;;;;;;;7.60;3.50;;;;;;;;;;5079142;28;20070;-78
2023/06/03 14:25:34;;;;;;;8.65;3.58;;;;;;;;;;5086766;28;20059;-76
2023/06/03 14:28:07;;;;;;;16.95;4.20;;;;;;;;;;5081287;28;20553;-76
2023/06/03 14:30:35;;;;;;;6.28;3.75;;;;;;;;;;5077927;28;20048;-75
2023/06/03 14:33:25;;;;;;;15.55;4.10;;;;;;;;;;5081116;28;20481;-75
2023/06/03 14:35:53;;;;;;;8.80;4.53;;;;;;;;;;5072809;28;20052;-78
2023/06/03 14:38:21;;;;;;;7.30;3.92;;;;;;;;;;5076869;28;20042;-75
2023/06/03 14:40:49;;;;;;;11.63;4.38;;;;;;;;;;5071526;28;20090;-72
2023/06/03 14:43:16;;;;;;;10.93;4.05;;;;;;;;;;5072463;28;20505;-73
2023/06/03 14:45:44;;;;;;;11.68;4.32;;;;;;;;;;5071300;28;20040;-75
2023/06/03 14:48:12;;;;;;;8.60;3.60;;;;;;;;;;5072257;28;20120;-75